Time;durP1;ratioP1;P1;durP2;ratioP2;P2;SDS_P1;SDS_P2;PMS_P1;PMS_P2;Temp;Humidity;BMP_temperature;BMP_pressure;BME280_temperature;BME280_humidity;BME280_pressure;Samples;Min_cycle;Max_cycle;Signal;HPM_P1;HPM_P2
2023/10/04 00:04:47;;;;;;;7.18;1.70;;;;;;;11.28;100.00;102048.09;10457707;28;20040;-77
2023/10/04 00:09:47;;;;;;;8.13;1.92;;;;;;;11.19;100.00;102055.84;10464896;28;20036;-78
2023/10/04 00:14:47;;;;;;;10.02;2.50;;;;;;;10.86;100.00;102012.13;10460385;28;20045;-79
2023/10/04 00:19:48;;;;;;;5.78;1.58;;;;;;;11.09;100.00;102061.88;10486556;28;20040;-78
2023/10/04 00:24:51;;;;;;;9.48;1.65;;;;;;;11.02;100.00;102069.38;10477864;28;20041;-75
2023/10/04 00:29:52;;;;;;;7.30;1.73;;;;;;;11.01;100.00;102075.13;10451978;28;20045;-76
2023/10/04 00:34:54;;;;;;;6.53;1.77;;;;;;;11.05;100.00;102090.97;10467261;28;20097;-77
2023/10/04 00:39:54;;;;;;;4.88;1.40;;;;;;;10.99;100.00;102077.25;10462141;28;20468;-78
2023/10/04 00:44:55;;;;;;;6.97;1.58;;;;;;;10.99;100.00;102078.09;10456448;28;20036;-77
2023/10/04 00:49:55;;;;;;;8.55;1.52;;;;;;;11.09;100.00;102094.94;10484155;28;20036;-69
2023/10/04 00:54:56;;;;;;;5.55;1.15;;;;;;;11.12;100.00;102099.19;10461566;28;22347;-78
2023/10/04 00:59:56;;;;;;;6.28;1.77;;;;;;;11.11;100.00;102098.31;10463663;28;20507;-78
2023/10/04 01:04:57;;;;;;;4.13;1.42;;;;;;;11.14;100.00;102104.44;10480677;28;20033;-78
2023/10/04 01:09:58;;;;;;;5.50;2.00;;;;;;;11.18;100.00;102102.91;10481071;28;20036;-78
2023/10/04 01:15:12;;;;;;;7.07;1.70;;;;;;;11.16;100.00;102105.06;10465316;28;20048;-77
2023/10/04 01:20:12;;;;;;;11.13;2.22;;;;;;;11.21;100.00;102107.97;10479960;28;20128;-77
2023/10/04 01:25:13;;;;;;;6.95;1.55;;;;;;;11.20;100.00;102103.53;10477871;28;20048;-79
2023/10/04 01:30:13;;;;;;;8.30;1.58;;;;;;;11.22;100.00;102113.25;10478986;28;20040;-77
2023/10/04 01:35:14;;;;;;;8.80;1.83;;;;;;;11.24;100.00;102116.63;10479470;28;20119;-77
2023/10/04 01:40:15;;;;;;;7.03;2.00;;;;;;;11.25;100.00;102117.47;10466110;28;20037;-77
2023/10/04 01:45:17;;;;;;;8.23;2.03;;;;;;;11.22;100.00;102115.16;10463198;28;20036;-77
2023/10/04 01:50:18;;;;;;;7.85;1.67;;;;;;;11.24;100.00;102110.28;10474379;28;20064;-78
2023/10/04 01:55:18;;;;;;;9.90;1.45;;;;;;;11.26;100.00;102119.16;10463919;28;20048;-79
2023/10/04 02:00:22;;;;;;;10.48;1.80;;;;;;;11.23;100.00;102111.34;10474516;28;20037;-78
2023/10/04 02:05:31;;;;;;;9.23;2.15;;;;;;;11.28;100.00;102117.00;10463678;28;20063;-77
2023/10/04 02:10:32;;;;;;;10.48;1.45;;;;;;;11.30;100.00;102106.59;10467972;28;20045;-77
2023/10/04 02:15:35;;;;;;;11.02;2.67;;;;;;;11.30;100.00;102117.63;10481715;28;20048;-77
2023/10/04 02:20:36;;;;;;;8.63;1.48;;;;;;;11.32;100.00;102115.47;10473051;28;20028;-78
2023/10/04 02:25:37;;;;;;;9.82;2.25;;;;;;;11.26;100.00;102094.34;10462409;28;20028;-77
2023/10/04 02:30:38;;;;;;;6.45;1.70;;;;;;;11.34;100.00;102102.31;10473074;28;20037;-76
2023/10/04 02:35:43;;;;;;;10.52;3.40;;;;;;;11.32;100.00;102105.28;10461147;28;20053;-78
2023/10/04 02:40:44;;;;;;;12.45;1.92;;;;;;;11.32;100.00;102121.00;10452661;28;20093;-76
2023/10/04 02:45:47;;;;;;;12.32;1.63;;;;;;;11.39;100.00;102115.41;10476547;28;20040;-77
2023/10/04 02:50:48;;;;;;;12.63;1.60;;;;;;;11.42;100.00;102131.50;10479020;28;20043;-77
2023/10/04 02:55:53;;;;;;;7.25;2.30;;;;;;;11.40;100.00;102130.88;10474822;28;20072;-77
2023/10/04 03:00:54;;;;;;;8.85;1.85;;;;;;;11.41;100.00;102136.19;10477591;28;20048;-78
2023/10/04 03:05:55;;;;;;;9.00;2.10;;;;;;;11.29;100.00;102136.09;10477502;28;20041;-78
2023/10/04 03:10:55;;;;;;;7.85;2.25;;;;;;;11.41;100.00;102147.22;10464121;28;20033;-80
2023/10/04 03:15:56;;;;;;;12.23;1.65;;;;;;;11.44;100.00;102152.25;10455777;28;20045;-79
2023/10/04 03:26:01;;;;;;;6.57;1.65;;;;;;;11.42;100.00;102154.41;10474223;28;20040;-78
2023/10/04 03:31:03;;;;;;;5.95;1.60;;;;;;;11.40;100.00;102153.78;10461309;28;20040;-79
2023/10/04 03:36:04;;;;;;;11.25;1.85;;;;;;;11.44;100.00;102141.22;10473268;28;20122;-77
2023/10/04 03:41:05;;;;;;;6.55;1.83;;;;;;;11.48;100.00;102147.97;10460023;28;20037;-76
2023/10/04 03:46:26;;;;;;;11.07;1.80;;;;;;;11.41;100.00;102144.47;10463961;28;20044;-78
2023/10/04 03:51:26;;;;;;;10.10;1.52;;;;;;;11.33;100.00;102155.78;10474645;28;20523;-77
2023/10/04 03:56:27;;;;;;;7.63;1.60;;;;;;;11.31;100.00;102153.25;10486064;28;20044;-78
2023/10/04 04:01:27;;;;;;;7.68;1.80;;;;;;;11.31;100.00;102168.94;10479920;28;20045;-80
2023/10/04 04:06:28;;;;;;;12.48;2.20;;;;;;;11.35;100.00;102169.31;10485540;28;20079;-79
2023/10/04 04:11:28;;;;;;;6.15;1.75;;;;;;;11.40;100.00;102178.59;10476954;28;20051;-79
2023/10/04 04:16:29;;;;;;;8.13;1.85;;;;;;;11.41;100.00;102176.69;10482589;28;20044;-79
2023/10/04 04:21:33;;;;;;;10.40;1.63;;;;;;;11.45;100.00;102173.25;10478796;28;20044;-79
2023/10/04 04:26:33;;;;;;;12.85;2.90;;;;;;;11.47;100.00;102173.88;10484296;28;20043;-78
2023/10/04 04:31:34;;;;;;;11.75;2.17;;;;;;;11.49;100.00;102185.53;10479406;28;20045;-77
2023/10/04 04:36:34;;;;;;;7.15;1.38;;;;;;;11.41;100.00;102162.91;10469622;28;20060;-79
2023/10/04 04:41:36;;;;;;;8.10;2.25;;;;;;;11.38;100.00;102168.88;10460301;28;20120;-79
2023/10/04 04:46:39;;;;;;;7.38;1.90;;;;;;;11.35;100.00;102183.09;10477223;28;20036;-79
2023/10/04 04:51:40;;;;;;;12.93;2.60;;;;;;;11.39;100.00;102168.66;10480208;28;20104;-80
2023/10/04 04:56:41;;;;;;;8.23;2.30;;;;;;;11.36;100.00;102182.06;10480275;28;20055;-80
2023/10/04 05:01:41;;;;;;;11.57;2.85;;;;;;;11.35;100.00;102174.84;10481305;28;20044;-78
2023/10/04 05:06:42;;;;;;;7.85;1.63;;;;;;;11.36;100.00;102171.03;10476909;28;20037;-79
2023/10/04 05:11:43;;;;;;;9.55;1.95;;;;;;;11.34;100.00;102176.75;10483705;28;20036;-81
2023/10/04 05:16:44;;;;;;;11.73;2.33;;;;;;;11.32;100.00;102181.66;10456184;28;20040;-81
2023/10/04 05:21:45;;;;;;;12.65;2.45;;;;;;;11.27;100.00;102189.78;10460270;28;20055;-80
2023/10/04 05:26:45;;;;;;;11.32;2.65;;;;;;;11.19;100.00;102188.16;10479235;28;20048;-79
2023/10/04 05:31:46;;;;;;;8.32;2.00;;;;;;;11.22;100.00;102195.94;10478759;28;20044;-81
2023/10/04 05:36:46;;;;;;;6.82;2.25;;;;;;;11.25;100.00;102213.97;10483339;28;20044;-81
2023/10/04 05:41:47;;;;;;;13.15;1.50;;;;;;;11.26;100.00;102221.16;10458061;28;20064;-81
2023/10/04 05:46:47;;;;;;;5.22;2.55;;;;;;;11.29;100.00;102220.72;10467809;28;20090;-76
2023/10/04 05:51:48;;;;;;;9.63;3.10;;;;;;;11.22;100.00;102226.28;10473945;28;20029;-81
2023/10/04 05:56:48;;;;;;;11.02;2.22;;;;;;;11.25;100.00;102247.06;10462781;28;20086;-80
2023/10/04 06:01:49;;;;;;;7.68;2.20;;;;;;;11.24;100.00;102242.59;10476747;28;20037;-81
2023/10/04 06:06:50;;;;;;;10.10;2.33;;;;;;;11.23;100.00;102244.50;10477145;28;20036;-78
2023/10/04 06:11:51;;;;;;;7.22;2.42;;;;;;;11.21;100.00;102252.16;10475691;28;20041;-78
2023/10/04 06:16:51;;;;;;;10.40;2.17;;;;;;;11.27;100.00;102262.28;10478173;28;20048;-79
2023/10/04 06:21:52;;;;;;;4.68;1.95;;;;;;;10.57;100.00;102149.44;10477683;28;20073;-77
2023/10/04 06:26:52;;;;;;;10.77;2.00;;;;;;;11.42;100.00;102272.97;10475680;28;20040;-82
2023/10/04 06:31:53;;;;;;;14.23;2.30;;;;;;;11.43;100.00;102254.50;10479158;28;20488;-77
2023/10/04 06:36:53;;;;;;;10.15;2.72;;;;;;;11.52;100.00;102254.00;10465256;28;20096;-79
2023/10/04 06:41:54;;;;;;;13.15;2.97;;;;;;;11.55;100.00;102251.84;10454286;28;20036;-71
2023/10/04 06:46:54;;;;;;;8.05;2.40;;;;;;;11.77;100.00;102277.94;10462179;28;20044;-81
2023/10/04 06:51:55;;;;;;;7.47;1.95;;;;;;;11.89;100.00;102287.19;10473510;28;20413;-81
2023/10/04 06:56:55;;;;;;;11.80;2.60;;;;;;;12.01;100.00;102294.69;10481460;28;20444;-81
2023/10/04 07:01:56;;;;;;;9.50;2.10;;;;;;;12.08;100.00;102296.31;10472491;28;20063;-78
2023/10/04 07:06:57;;;;;;;14.13;3.42;;;;;;;12.18;100.00;102301.31;10478818;28;20036;-78
2023/10/04 07:11:58;;;;;;;12.70;2.97;;;;;;;12.30;100.00;102293.94;10465071;28;20137;-81
2023/10/04 07:16:59;;;;;;;9.13;2.47;;;;;;;12.45;100.00;102293.53;10473552;28;20059;-82
2023/10/04 07:22:00;;;;;;;11.43;3.00;;;;;;;12.51;100.00;102289.03;10478842;28;20048;-80
2023/10/04 07:27:02;;;;;;;10.73;2.92;;;;;;;12.58;100.00;102295.28;10484217;28;20044;-81
2023/10/04 07:32:03;;;;;;;9.73;3.35;;;;;;;12.75;100.00;102313.97;10482829;28;20425;-81
2023/10/04 07:37:04;;;;;;;16.45;2.22;;;;;;;12.88;100.00;102327.63;10485259;28;20060;-82
2023/10/04 07:42:04;;;;;;;15.50;2.85;;;;;;;13.00;100.00;102330.41;10467308;28;20040;-85
2023/10/04 07:47:05;;;;;;;12.02;2.47;;;;;;;13.10;100.00;102320.50;10472094;28;20041;-78
2023/10/04 07:52:06;;;;;;;14.00;3.92;;;;;;;13.24;100.00;102329.41;10451497;28;20397;-79
2023/10/04 07:57:06;;;;;;;10.65;2.95;;;;;;;13.34;100.00;102326.09;10462837;28;20043;-75
2023/10/04 08:02:07;;;;;;;12.40;3.75;;;;;;;13.51;100.00;102323.47;10479583;28;20044;-77
2023/10/04 08:07:12;;;;;;;14.98;4.22;;;;;;;13.61;100.00;102328.44;10477518;28;20045;-79
2023/10/04 08:12:12;;;;;;;8.80;2.83;;;;;;;13.59;100.00;102303.75;10452245;28;20041;-81
2023/10/04 08:17:16;;;;;;;11.80;2.50;;;;;;;13.85;100.00;102340.34;10457674;28;20041;-78
2023/10/04 08:22:17;;;;;;;12.77;3.03;;;;;;;13.93;100.00;102340.84;10452397;28;20496;-78
2023/10/04 08:27:18;;;;;;;11.00;3.30;;;;;;;14.16;100.00;102336.38;10448865;28;20037;-78
2023/10/04 08:32:18;;;;;;;11.98;3.40;;;;;;;14.24;100.00;102340.69;10448752;28;20041;-79
2023/10/04 08:37:19;;;;;;;10.30;3.30;;;;;;;14.48;100.00;102347.03;10460472;28;20117;-81
2023/10/04 08:42:20;;;;;;;10.75;2.10;;;;;;;14.62;100.00;102351.25;10458804;28;20500;-75
2023/10/04 08:47:22;;;;;;;6.05;2.65;;;;;;;14.54;100.00;102344.09;10467389;28;20052;-76
2023/10/04 08:52:36;;;;;;;11.95;2.92;;;;;;;14.63;100.00;102355.69;10463085;28;20062;-78
2023/10/04 08:57:39;;;;;;;11.75;2.67;;;;;;;14.75;100.00;102357.59;10478498;28;20052;-77
2023/10/04 09:02:45;;;;;;;14.60;2.80;;;;;;;14.90;100.00;102360.66;10480990;28;20511;-77
2023/10/04 09:07:46;;;;;;;;;;;;;;;15.03;100.00;102373.41;10473314;28;20041;-80
2023/10/04 09:12:49;;;;;;;9.00;2.20;;;;;;;14.90;100.00;102358.75;10478273;28;20002;-78
2023/10/04 09:17:56;;;;;;;11.73;2.60;;;;;;;15.02;100.00;102363.38;10466036;28;20144;-76
2023/10/04 09:22:59;;;;;;;9.85;2.75;;;;;;;15.22;100.00;102343.53;10463637;28;20074;-78
2023/10/04 09:27:59;;;;;;;9.75;2.10;;;;;;;15.59;100.00;102356.94;10467412;28;20040;-75
2023/10/04 09:33:00;;;;;;;12.93;3.03;;;;;;;15.80;100.00;102356.19;10474928;28;20036;-77
2023/10/04 09:38:17;;;;;;;17.73;2.80;;;;;;;16.21;100.00;102356.81;10479463;28;20284;-75
2023/10/04 09:43:17;;;;;;;14.40;3.08;;;;;;;15.66;100.00;102271.53;10445181;28;20116;-77
2023/10/04 09:48:18;;;;;;;11.55;3.35;;;;;;;16.23;100.00;102356.56;10476093;28;20103;-74
2023/10/04 09:53:19;;;;;;;8.57;2.53;;;;;;;16.20;100.00;102334.81;10476726;28;20056;-79
2023/10/04 09:58:23;;;;;;;9.43;3.08;;;;;;;16.37;100.00;102351.44;10477990;28;20048;-74
2023/10/04 10:03:26;;;;;;;12.60;2.72;;;;;;;16.50;100.00;102338.00;10478922;28;20045;-76
2023/10/04 10:08:27;;;;;;;7.30;2.42;;;;;;;16.56;100.00;102330.59;10474861;28;20043;-77
2023/10/04 10:13:29;;;;;;;10.45;2.70;;;;;;;16.64;100.00;102318.13;10460549;28;20047;-77
2023/10/04 10:18:31;;;;;;;11.65;3.17;;;;;;;16.83;100.00;102310.34;10473319;28;20048;-76
2023/10/04 10:23:35;;;;;;;9.85;3.33;;;;;;;17.09;100.00;102301.13;10480890;28;20070;-73
2023/10/04 10:28:36;;;;;;;8.02;2.30;;;;;;;17.31;100.00;102297.44;10473824;28;20037;-78
2023/10/04 10:33:37;;;;;;;9.48;2.85;;;;;;;17.39;100.00;102296.97;10465564;28;20037;-70
2023/10/04 10:38:40;;;;;;;7.75;2.63;;;;;;;17.47;100.00;102309.56;10477371;28;20036;-75
2023/10/04 10:44:19;;;;;;;7.85;2.10;;;;;;;17.68;100.00;102293.84;10464477;28;20128;-76
2023/10/04 10:49:40;;;;;;;12.70;2.90;;;;;;;17.74;100.00;102299.16;10473745;28;20105;-74
2023/10/04 10:54:41;;;;;;;9.50;2.83;;;;;;;17.63;100.00;102291.88;10480715;28;20120;-73
2023/10/04 10:59:42;;;;;;;11.82;3.85;;;;;;;17.32;100.00;102301.91;10478405;28;20048;-76
2023/10/04 11:04:42;;;;;;;12.82;3.58;;;;;;;17.21;100.00;102311.28;10438896;28;20041;-75
2023/10/04 11:09:50;;;;;;;12.75;4.20;;;;;;;17.00;100.00;102319.41;10484680;28;20496;-75
2023/10/04 11:14:51;;;;;;;9.07;2.90;;;;;;;16.90;100.00;102310.97;10481726;28;20055;-76
2023/10/04 11:19:51;;;;;;;5.93;2.25;;;;;;;16.87;100.00;102342.09;10484532;28;20096;-75
2023/10/04 11:24:52;;;;;;;9.93;2.90;;;;;;;16.24;100.00;102241.50;10482484;28;20041;-75
2023/10/04 11:29:52;;;;;;;8.93;2.60;;;;;;;16.86;100.00;102329.28;10473188;28;20058;-75
2023/10/04 11:34:55;;;;;;;10.30;2.67;;;;;;;16.49;100.00;102327.97;10476463;28;20060;-75
2023/10/04 11:39:55;;;;;;;8.98;3.00;;;;;;;16.51;100.00;102336.06;10482863;28;20035;-75
2023/10/04 11:44:56;;;;;;;13.30;4.03;;;;;;;16.42;100.00;102321.78;10481278;28;20065;-73
2023/10/04 11:49:59;;;;;;;10.05;2.88;;;;;;;16.79;100.00;102309.16;10487104;28;20032;-75
2023/10/04 11:55:00;;;;;;;8.05;2.53;;;;;;;16.68;100.00;102303.47;10478194;28;20041;-75
2023/10/04 12:00:17;;;;;;;9.65;3.00;;;;;;;16.78;100.00;102302.72;10455746;28;20040;-75
2023/10/04 12:05:18;;;;;;;11.80;2.83;;;;;;;16.76;100.00;102307.72;10466295;28;20045;-75
2023/10/04 12:10:19;;;;;;;9.25;3.35;;;;;;;16.80;100.00;102289.41;10484508;28;20059;-75
2023/10/04 12:15:19;;;;;;;10.65;3.38;;;;;;;16.98;100.00;102296.59;10479186;28;20040;-75
2023/10/04 12:20:24;;;;;;;10.65;3.35;;;;;;;16.84;100.00;102296.16;10486189;28;20069;-74
2023/10/04 12:25:26;;;;;;;7.82;2.58;;;;;;;16.92;100.00;102279.00;10477954;28;20045;-75
2023/10/04 12:30:31;;;;;;;10.10;2.88;;;;;;;17.10;100.00;102277.78;10483317;28;20037;-74
2023/10/04 12:35:31;;;;;;;11.93;3.33;;;;;;;17.05;100.00;102290.78;10460588;28;20521;-74
2023/10/04 12:40:32;;;;;;;11.15;2.83;;;;;;;17.01;100.00;102279.38;10459946;28;20170;-75
2023/10/04 12:45:33;;;;;;;8.90;2.72;;;;;;;17.09;100.00;102292.78;10478373;28;20040;-74
2023/10/04 12:50:35;;;;;;;6.43;2.53;;;;;;;17.08;100.00;102280.00;10483569;28;20037;-75
2023/10/04 12:55:35;;;;;;;9.73;3.00;;;;;;;17.04;100.00;102280.78;10475544;28;20054;-75
2023/10/04 13:00:36;;;;;;;8.00;2.30;;;;;;;17.12;100.00;102278.34;10444999;28;20037;-73
2023/10/04 13:05:37;;;;;;;8.30;2.42;;;;;;;17.55;100.00;102267.31;10457760;28;20045;-74
2023/10/04 13:10:39;;;;;;;6.28;2.17;;;;;;;18.16;100.00;102261.25;10452798;28;20467;-74
2023/10/04 13:15:39;;;;;;;7.80;2.55;;;;;;;18.29;100.00;102262.69;10451537;28;20044;-75
2023/10/04 13:20:40;;;;;;;9.50;2.28;;;;;;;18.22;100.00;102259.34;10446671;28;20158;-73
2023/10/04 13:25:43;;;;;;;7.32;2.00;;;;;;;18.13;100.00;102261.81;10450970;28;20029;-76
2023/10/04 13:30:45;;;;;;;7.68;2.15;;;;;;;18.02;100.00;102260.91;10443570;28;20037;-75
2023/10/04 13:35:48;;;;;;;6.85;2.13;;;;;;;17.79;100.00;102251.00;10451505;28;20041;-75
2023/10/04 13:40:52;;;;;;;10.65;2.05;;;;;;;17.48;100.00;102245.22;10447826;28;20063;-74
2023/10/04 13:45:53;;;;;;;6.53;1.80;;;;;;;17.42;100.00;102251.88;10452379;28;20401;-76
2023/10/04 13:50:53;;;;;;;7.88;2.45;;;;;;;17.11;100.00;102251.63;10448114;28;20041;-75
2023/10/04 13:55:54;;;;;;;10.15;2.63;;;;;;;16.71;100.00;102255.66;10465002;28;20033;-74
2023/10/04 14:00:58;;;;;;;9.15;3.47;;;;;;;16.81;100.00;102245.78;10462582;28;20039;-74
2023/10/04 14:06:06;;;;;;;8.18;2.63;;;;;;;16.97;100.00;102242.06;10469193;28;20033;-75
2023/10/04 14:11:07;;;;;;;7.78;1.92;;;;;;;16.93;100.00;102244.53;10465531;28;20036;-73
2023/10/04 14:16:07;;;;;;;9.45;2.17;;;;;;;16.84;100.00;102245.25;10480925;28;20044;-75
2023/10/04 14:21:08;;;;;;;7.43;2.20;;;;;;;16.57;100.00;102246.06;10450931;28;20084;-75
2023/10/04 14:26:11;;;;;;;8.90;2.17;;;;;;;16.41;100.00;102246.97;10479113;28;20028;-74
2023/10/04 14:31:13;;;;;;;10.52;2.35;;;;;;;16.19;100.00;102233.97;10446002;28;20098;-77
2023/10/04 14:36:14;;;;;;;10.73;2.10;;;;;;;16.16;100.00;102234.47;10453532;28;20049;-76
2023/10/04 14:41:15;;;;;;;8.15;2.13;;;;;;;16.18;100.00;102231.44;10455163;28;20040;-76
2023/10/04 14:46:16;;;;;;;10.45;2.20;;;;;;;16.08;100.00;102212.69;10441140;28;20056;-77
2023/10/04 14:51:16;;;;;;;10.65;2.63;;;;;;;16.28;100.00;102212.09;10452568;28;20375;-75
2023/10/04 14:56:17;;;;;;;6.75;2.22;;;;;;;16.24;100.00;102214.56;10449232;28;20535;-75
2023/10/04 15:01:18;;;;;;;8.75;2.42;;;;;;;16.26;100.00;102201.25;10436885;28;20045;-75
2023/10/04 15:06:18;;;;;;;9.10;2.80;;;;;;;16.26;100.00;102197.63;10472791;28;20037;-76
2023/10/04 15:11:27;;;;;;;9.02;2.90;;;;;;;16.13;100.00;102193.31;10477101;28;20044;-74
2023/10/04 15:16:28;;;;;;;7.35;2.00;;;;;;;16.18;100.00;102192.53;10471742;28;20577;-75
2023/10/04 15:21:29;;;;;;;7.03;2.03;;;;;;;16.11;100.00;102193.56;10448493;28;20041;-76
2023/10/04 15:26:31;;;;;;;9.32;2.17;;;;;;;16.22;100.00;102188.97;10473619;28;20080;-75
2023/10/04 15:31:31;;;;;;;7.53;1.98;;;;;;;16.22;100.00;102180.63;10475495;28;20477;-75
2023/10/04 15:36:32;;;;;;;8.60;1.73;;;;;;;16.04;100.00;102148.50;10473187;28;20038;-77
2023/10/04 15:41:32;;;;;;;7.03;2.28;;;;;;;16.07;100.00;102175.75;10455041;28;20029;-75
2023/10/04 15:46:34;;;;;;;11.88;2.25;;;;;;;15.99;100.00;102184.53;10436995;28;20404;-74
2023/10/04 15:51:37;;;;;;;8.55;2.40;;;;;;;15.87;100.00;102181.88;10439161;28;20612;-76
2023/10/04 15:56:38;;;;;;;9.43;2.08;;;;;;;15.77;100.00;102173.41;10423625;28;20052;-75
2023/10/04 16:01:38;;;;;;;10.45;1.67;;;;;;;15.71;100.00;102160.56;10481560;28;20037;-76
2023/10/04 16:06:39;;;;;;;7.75;1.40;;;;;;;15.67;100.00;102164.94;10481578;28;20086;-76
2023/10/04 16:11:39;;;;;;;5.35;1.33;;;;;;;15.61;100.00;102165.97;10482776;28;20039;-77
2023/10/04 16:16:41;;;;;;;7.57;1.83;;;;;;;15.75;100.00;102156.19;10480615;28;20045;-77
2023/10/04 16:21:42;;;;;;;4.32;1.83;;;;;;;15.71;100.00;102157.78;10482061;28;20094;-75
2023/10/04 16:26:42;;;;;;;5.53;1.20;;;;;;;15.49;100.00;102172.47;10483582;28;20079;-76
2023/10/04 16:31:43;;;;;;;5.22;0.82;;;;;;;15.34;100.00;102169.47;10488559;28;20036;-75
2023/10/04 16:36:43;;;;;;;5.40;1.27;;;;;;;15.17;100.00;102158.38;10483397;28;20040;-75
2023/10/04 16:41:44;;;;;;;8.48;1.60;;;;;;;14.99;100.00;102162.28;10484386;28;20032;-70
2023/10/04 16:46:45;;;;;;;9.80;0.95;;;;;;;14.82;100.00;102178.06;10474489;28;20055;-76
2023/10/04 16:51:46;;;;;;;5.05;1.50;;;;;;;14.71;100.00;102185.38;10461692;28;20044;-76
2023/10/04 16:56:48;;;;;;;8.52;1.55;;;;;;;14.09;100.00;102103.03;10460273;28;20123;-76
2023/10/04 17:01:48;;;;;;;7.32;1.55;;;;;;;14.39;100.00;102183.09;10481080;28;20043;-76
2023/10/04 17:06:49;;;;;;;6.05;1.05;;;;;;;14.33;100.00;102189.63;10483607;28;20492;-76
2023/10/04 17:11:49;;;;;;;3.20;1.40;;;;;;;14.27;100.00;102199.75;10485724;28;20086;-75
2023/10/04 17:16:50;;;;;;;10.02;2.33;;;;;;;14.20;100.00;102193.53;10473275;28;20040;-75
2023/10/04 17:21:50;;;;;;;9.10;1.63;;;;;;;14.10;100.00;102196.94;10479829;28;20506;-77
2023/10/04 17:26:51;;;;;;;9.75;1.77;;;;;;;13.60;100.00;102141.34;10477765;28;20465;-76
2023/10/04 17:31:51;;;;;;;7.80;1.40;;;;;;;13.85;100.00;102207.47;10485101;28;20036;-76
2023/10/04 17:36:52;;;;;;;5.60;2.20;;;;;;;13.72;100.00;102189.19;10480351;28;20051;-76
2023/10/04 17:41:53;;;;;;;2.67;0.90;;;;;;;13.73;100.00;102207.50;10473009;28;20036;-76
2023/10/04 17:46:56;;;;;;;7.05;1.88;;;;;;;13.72;100.00;102200.28;10449393;28;20052;-68
2023/10/04 17:51:56;;;;;;;4.53;1.67;;;;;;;13.72;100.00;102205.81;10458170;28;20495;-77
2023/10/04 17:56:57;;;;;;;5.68;1.10;;;;;;;13.71;100.00;102204.13;10477777;28;20037;-75
2023/10/04 18:01:57;;;;;;;8.27;1.17;;;;;;;13.71;100.00;102209.69;10481136;28;20052;-76
2023/10/04 18:06:58;;;;;;;5.43;0.95;;;;;;;13.73;100.00;102202.81;10477446;28;20036;-76
2023/10/04 18:11:59;;;;;;;6.00;1.23;;;;;;;13.73;100.00;102202.81;10487112;28;20033;-77
2023/10/04 18:16:59;;;;;;;4.85;1.05;;;;;;;13.76;100.00;102212.53;10476761;28;20060;-77
2023/10/04 18:22:00;;;;;;;9.25;2.25;;;;;;;13.72;100.00;102203.91;10480382;28;20036;-77
2023/10/04 18:27:01;;;;;;;4.53;1.83;;;;;;;13.62;100.00;102197.28;10477443;28;20044;-75
2023/10/04 18:32:01;;;;;;;4.97;1.55;;;;;;;13.55;100.00;102193.81;10482392;28;20045;-75
2023/10/04 18:37:02;;;;;;;8.45;1.15;;;;;;;13.49;100.00;102196.44;10464558;28;20033;-77
2023/10/04 18:42:05;;;;;;;6.47;1.25;;;;;;;13.46;100.00;102199.72;10468289;28;20041;-74
2023/10/04 18:47:05;;;;;;;6.50;1.45;;;;;;;13.38;100.00;102177.94;10470045;28;20040;-77
2023/10/04 18:52:06;;;;;;;8.65;1.77;;;;;;;13.42;100.00;102181.91;10463048;28;20040;-76
2023/10/04 18:57:07;;;;;;;7.85;1.45;;;;;;;13.34;100.00;102185.03;10455082;28;20048;-77
2023/10/04 19:02:09;;;;;;;9.07;2.08;;;;;;;13.28;100.00;102172.97;10473668;28;20052;-76
2023/10/04 19:07:10;;;;;;;6.10;1.50;;;;;;;13.16;100.00;102179.59;10467094;28;20036;-77
2023/10/04 19:12:11;;;;;;;9.27;1.88;;;;;;;13.02;100.00;102174.31;10468665;28;20032;-76
2023/10/04 19:17:13;;;;;;;5.32;1.58;;;;;;;12.89;100.00;102178.13;10471761;28;20033;-75
2023/10/04 19:22:13;;;;;;;8.07;1.58;;;;;;;12.76;100.00;102177.50;10484245;28;20045;-75
2023/10/04 19:27:14;;;;;;;2.72;1.15;;;;;;;12.70;100.00;102166.31;10466797;28;20032;-75
2023/10/04 19:32:14;;;;;;;5.15;1.98;;;;;;;12.63;100.00;102170.25;10479548;28;20052;-77
2023/10/04 19:37:17;;;;;;;6.88;1.50;;;;;;;12.56;100.00;102173.13;10466249;28;20075;-76
2023/10/04 19:42:18;;;;;;;10.30;1.73;;;;;;;12.49;100.00;102173.22;10479408;28;20064;-77
2023/10/04 19:47:19;;;;;;;4.43;1.25;;;;;;;12.49;100.00;102169.63;10456092;28;20092;-77
2023/10/04 19:52:19;;;;;;;6.75;1.08;;;;;;;12.44;100.00;102161.19;10453764;28;20060;-76
2023/10/04 19:57:20;;;;;;;6.47;1.30;;;;;;;12.38;100.00;102151.09;10450637;28;20052;-76
2023/10/04 20:02:20;;;;;;;5.57;1.00;;;;;;;12.34;100.00;102147.09;10446344;28;20063;-78
2023/10/04 20:07:26;;;;;;;9.57;2.13;;;;;;;12.30;100.00;102142.06;10440065;28;20037;-76
2023/10/04 20:12:26;;;;;;;9.27;1.58;;;;;;;12.29;100.00;102137.59;10447292;28;20045;-79
2023/10/04 20:17:27;;;;;;;8.00;1.33;;;;;;;12.28;100.00;102127.66;10442065;28;20050;-79
2023/10/04 20:22:30;;;;;;;7.47;1.33;;;;;;;12.27;100.00;102130.66;10436504;28;20041;-79
2023/10/04 20:27:30;;;;;;;9.55;2.00;;;;;;;12.26;100.00;102129.81;10437039;28;20048;-76
2023/10/04 20:32:31;;;;;;;5.82;2.17;;;;;;;12.26;100.00;102126.22;10446349;28;20044;-76
2023/10/04 20:37:32;;;;;;;3.45;1.23;;;;;;;12.26;100.00;102109.66;10480684;28;20120;-76
2023/10/04 20:42:33;;;;;;;5.85;2.63;;;;;;;12.31;100.00;102107.84;10485820;28;20067;-76
2023/10/04 20:47:34;;;;;;;7.10;1.75;;;;;;;12.43;100.00;102115.34;10479922;28;20368;-76
2023/10/04 20:52:35;;;;;;;6.22;1.80;;;;;;;12.51;100.00;102096.50;10486400;28;20232;-76
2023/10/04 20:57:35;;;;;;;6.43;1.33;;;;;;;12.64;100.00;102087.13;10473610;28;20040;-75
2023/10/04 21:02:37;;;;;;;6.82;1.73;;;;;;;12.77;100.00;102074.16;10465110;28;20043;-75
2023/10/04 21:07:37;;;;;;;5.95;1.40;;;;;;;12.87;100.00;102072.47;10473248;28;20060;-77
2023/10/04 21:12:38;;;;;;;2.97;1.00;;;;;;;12.90;100.00;102058.19;10485706;28;20033;-78
2023/10/04 21:17:38;;;;;;;6.03;1.33;;;;;;;12.91;100.00;102057.09;10476015;28;20040;-75
2023/10/04 21:22:39;;;;;;;10.85;1.95;;;;;;;12.91;100.00;102054.34;10460763;28;20048;-76
2023/10/04 21:27:40;;;;;;;9.90;1.63;;;;;;;12.88;100.00;102049.31;10470055;28;20037;-76
2023/10/04 21:32:44;;;;;;;2.67;0.85;;;;;;;12.74;100.00;102036.81;10468744;28;20068;-77
2023/10/04 21:37:52;;;;;;;10.68;1.50;;;;;;;12.82;100.00;102057.72;10460192;28;20102;-75
2023/10/04 21:42:58;;;;;;;5.05;1.30;;;;;;;12.80;100.00;102054.34;10463534;28;20041;-75
2023/10/04 21:48:02;;;;;;;6.25;1.52;;;;;;;12.76;100.00;102058.69;10478425;28;20061;-77
2023/10/04 21:53:03;;;;;;;5.57;1.20;;;;;;;12.68;100.00;102049.66;10475155;28;20450;-77
2023/10/04 21:58:06;;;;;;;6.68;1.23;;;;;;;12.67;100.00;102045.22;10439079;28;20038;-76
2023/10/04 22:03:07;;;;;;;7.50;1.10;;;;;;;12.63;100.00;102044.03;10443946;28;20049;-74
2023/10/04 22:08:12;;;;;;;6.63;1.75;;;;;;;12.59;100.00;102047.47;10457228;28;20054;-76
2023/10/04 22:13:13;;;;;;;7.57;3.63;;;;;;;12.55;100.00;102041.63;10464200;28;20447;-76
2023/10/04 22:18:13;;;;;;;7.25;1.50;;;;;;;12.54;100.00;102023.34;10461506;28;20474;-76
2023/10/04 22:23:14;;;;;;;5.63;1.38;;;;;;;12.53;100.00;102021.69;10455263;28;20033;-76
2023/10/04 22:28:14;;;;;;;7.55;1.52;;;;;;;12.43;100.00;102004.84;10464348;28;20497;-75
2023/10/04 22:33:18;;;;;;;5.45;1.73;;;;;;;12.46;100.00;102010.75;10467922;28;20037;-76
2023/10/04 22:38:18;;;;;;;8.50;1.60;;;;;;;12.35;100.00;101985.88;10455630;28;20047;-77
2023/10/04 22:43:20;;;;;;;4.25;1.25;;;;;;;12.46;100.00;102004.38;10468095;28;20040;-77
2023/10/04 22:48:20;;;;;;;7.97;1.60;;;;;;;12.45;100.00;101991.66;10478496;28;20052;-76
2023/10/04 22:53:21;;;;;;;8.98;1.55;;;;;;;12.45;100.00;101980.59;10478723;28;20056;-77